Time;durP1;ratioP1;P1;durP2;ratioP2;P2;SDS_P1;SDS_P2;PMS_P1;PMS_P2;Temp;Humidity;BMP_temperature;BMP_pressure;BME280_temperature;BME280_humidity;BME280_pressure;Samples;Min_cycle;Max_cycle;Signal;HPM_P1;HPM_P2
2023/06/07 07:01:15;;;;;;;3.27;1.77;;;16.20;99.90;18.80;101854.00;;;;6100524;22;4176692;-66
2023/06/07 07:03:41;;;;;;;1.13;1.03;;;16.30;99.90;18.90;101860.00;;;;6277089;22;20193;-66
2023/06/07 07:06:07;;;;;;;0.40;0.40;;;16.60;99.90;19.00;101865.00;;;;6278731;22;20183;-67
2023/06/07 07:08:36;;;;;;;3.73;2.80;;;16.70;99.90;17.80;101851.00;;;;6276869;22;20141;-66
2023/06/07 07:11:02;;;;;;;0.73;0.73;;;16.40;99.90;18.60;101870.00;;;;6277393;22;20147;-66
2023/06/07 07:13:34;;;;;;;0.67;0.67;;;16.50;99.90;18.50;101871.00;;;;6276793;22;20175;-67
2023/06/07 07:16:07;;;;;;;3.37;3.10;;;16.50;99.90;18.40;101865.00;;;;6278213;22;20192;-67
2023/06/07 07:18:35;;;;;;;1.70;0.90;;;16.60;99.90;19.50;101872.00;;;;6276684;22;20480;-67
2023/06/07 07:21:07;;;;;;;2.47;2.03;;;17.00;99.90;19.10;101875.00;;;;6277947;22;20167;-66
2023/06/07 07:23:35;;;;;;;6.78;2.03;;;17.20;99.90;19.50;101884.00;;;;6278553;22;20149;-67
2023/06/07 07:26:03;;;;;;;20.67;2.35;;;17.60;99.90;21.10;101871.00;;;;6276507;22;20604;-67
2023/06/07 07:28:53;;;;;;;1.13;0.75;;;18.60;99.90;21.00;101870.00;;;;6278282;22;20244;-67
2023/06/07 07:31:20;;;;;;;2.75;1.50;;;18.80;99.90;21.20;101916.00;;;;6278116;22;20676;-67
2023/06/07 07:33:54;;;;;;;1.15;1.05;;;19.60;99.90;23.20;101898.00;;;;6277873;22;20149;-65
2023/06/07 07:36:24;;;;;;;2.40;1.63;;;20.00;99.90;24.30;101930.00;;;;6276840;22;20137;-67
2023/06/07 07:38:57;;;;;;;1.48;1.35;;;21.30;99.90;24.30;101952.00;;;;6278336;22;20145;-67
2023/06/07 07:41:32;;;;;;;1.02;1.02;;;21.80;99.90;23.80;101953.00;;;;6278001;22;20173;-67
2023/06/07 07:44:04;;;;;;;0.47;0.47;;;21.60;99.90;23.40;101968.00;;;;6276437;22;20145;-67
2023/06/07 07:46:30;;;;;;;3.97;1.95;;;21.10;99.90;22.40;101975.00;;;;6251307;22;20149;-66
2023/06/07 07:48:56;;;;;;;0.45;0.45;;;20.70;99.90;23.80;101949.00;;;;6277404;22;20577;-66
2023/06/07 07:51:22;;;;;;;1.95;1.30;;;21.00;99.90;23.60;101975.00;;;;6277933;22;20234;-66
2023/06/07 07:53:56;;;;;;;1.38;1.08;;;21.40;99.90;25.10;101957.00;;;;6276153;22;20497;-67
2023/06/07 07:56:22;;;;;;;6.32;2.30;;;21.80;99.90;23.80;101988.00;;;;6278257;22;20194;-66
2023/06/07 07:58:49;;;;;;;1.92;1.15;;;22.10;99.90;23.00;101985.00;;;;6277605;22;20191;-66
2023/06/07 08:01:19;;;;;;;2.35;1.33;;;21.30;99.90;24.40;101984.00;;;;6250470;22;20540;-67
2023/06/07 08:03:48;;;;;;;1.20;0.77;;;21.80;99.90;25.90;101959.00;;;;6275885;22;20141;-67
2023/06/07 08:06:22;;;;;;;0.63;0.63;;;22.40;99.90;25.10;101984.00;;;;6276219;22;20150;-67
2023/06/07 08:08:53;;;;;;;0.55;0.55;;;22.60;99.90;25.70;101980.00;;;;6278053;22;20160;-67
2023/06/07 08:11:21;;;;;;;1.05;0.95;;;22.60;99.90;25.10;101984.00;;;;6278013;22;20145;-66
2023/06/07 08:13:49;;;;;;;3.08;2.58;;;22.60;99.90;23.30;102016.00;;;;6276899;22;20179;-67
2023/06/07 08:16:17;;;;;;;1.70;1.00;;;22.00;99.90;24.20;101995.00;;;;6275597;22;20592;-66
2023/06/07 08:18:49;;;;;;;0.28;0.28;;;21.80;99.90;24.90;101987.00;;;;6275542;22;20501;-66
2023/06/07 08:21:25;;;;;;;4.22;2.67;;;22.20;99.90;22.80;102004.00;;;;6276106;22;20228;-67
2023/06/07 08:23:56;;;;;;;0.10;0.10;;;21.60;99.90;26.20;101963.00;;;;6277448;22;20581;-70
2023/06/07 08:26:23;;;;;;;1.90;1.73;;;22.20;99.90;24.50;101977.00;;;;6276054;22;20554;-68
2023/06/07 08:28:48;;;;;;;2.22;2.08;;;22.20;99.90;25.80;101968.00;;;;6249965;22;20218;-67
2023/06/07 08:31:25;;;;;;;0.28;0.28;;;22.70;99.90;26.00;101957.00;;;;6249000;22;20186;-66
2023/06/07 08:33:59;;;;;;;0.77;0.77;;;23.30;99.90;28.10;101913.00;;;;6277874;22;20156;-67
2023/06/07 08:36:28;;;;;;;0.77;0.77;;;24.60;99.90;25.70;101957.00;;;;6277725;22;20251;-68
2023/06/07 08:38:54;;;;;;;2.22;1.20;;;23.80;99.90;25.70;101960.00;;;;6276180;22;20572;-68
2023/06/07 08:41:41;;;;;;;1.05;1.00;;;23.90;99.90;27.10;101936.00;;;;6275766;22;20145;-68
2023/06/07 08:44:25;;;;;;;0.50;0.50;;;23.90;99.90;28.30;101876.00;;;;6276042;22;20149;-68
2023/06/07 08:47:21;;;;;;;0.75;0.22;;;24.60;99.90;28.00;101907.00;;;;6277025;22;20156;-69
2023/06/07 08:50:06;;;;;;;4.65;1.88;;;24.90;99.90;28.40;101891.00;;;;6276350;22;20466;-68
2023/06/07 08:52:43;;;;;;;0.40;0.40;;;25.40;99.90;29.10;101885.00;;;;6276302;22;20172;-68
2023/06/07 08:55:13;;;;;;;0.45;0.43;;;25.80;99.90;28.00;101908.00;;;;6276077;22;20204;-68
2023/06/07 08:57:40;;;;;;;1.23;1.13;;;25.40;99.90;25.90;101953.00;;;;6275910;22;20177;-68
2023/06/07 09:00:08;;;;;;;1.40;1.13;;;24.80;99.90;26.80;101926.00;;;;6275569;22;20241;-68
2023/06/07 09:02:57;;;;;;;6.35;2.65;;;24.30;99.90;26.00;101941.00;;;;6275464;22;20477;-68
2023/06/07 09:05:37;;;;;;;0.10;0.10;;;24.50;99.90;28.70;101916.00;;;;6276104;22;20145;-68
2023/06/07 09:08:03;;;;;;;3.10;1.85;;;24.80;99.90;26.70;101950.00;;;;6250338;22;20577;-68
2023/06/07 09:10:30;;;;;;;3.30;3.10;;;25.00;99.90;25.10;101997.00;;;;6275139;22;20596;-66
2023/06/07 09:12:56;;;;;;;0.50;0.50;;;23.90;99.90;24.90;101998.00;;;;6277089;22;20620;-68
2023/06/07 09:15:22;;;;;;;0.47;0.47;;;23.10;99.90;27.00;101966.00;;;;6276899;22;20153;-68
2023/06/07 09:18:00;;;;;;;2.38;1.10;;;23.70;99.90;25.20;101984.00;;;;6276816;22;20155;-68
2023/06/07 09:20:28;;;;;;;3.83;1.55;;;23.40;99.90;26.00;101950.00;;;;6276983;22;20178;-68
2023/06/07 09:23:23;;;;;;;0.45;0.45;;;23.10;99.90;27.90;101944.00;;;;6249835;22;20180;-69
2023/06/07 09:26:19;;;;;;;1.73;1.55;;;24.00;99.90;25.60;101989.00;;;;6275476;22;20160;-66
2023/06/07 09:28:50;;;;;;;3.90;2.67;;;23.60;99.90;27.30;101951.00;;;;6275111;22;20140;-66
2023/06/07 09:32:04;;;;;;;0.10;0.10;;;24.40;99.90;29.50;101909.00;;;;6275213;22;20155;-66
2023/06/07 09:34:32;;;;;;;1.55;1.10;;;25.30;99.90;27.00;101950.00;;;;6275515;22;20264;-66
2023/06/07 09:36:58;;;;;;;4.60;3.22;;;25.50;99.90;26.30;101968.00;;;;6274525;22;20149;-67
2023/06/07 09:39:27;;;;;;;1.95;1.83;;;24.60;99.90;29.10;101897.00;;;;6274727;22;20191;-68
2023/06/07 09:42:00;;;;;;;1.35;1.10;;;25.40;99.90;28.30;101931.00;;;;6276525;22;20161;-70
2023/06/07 09:44:35;;;;;;;1.77;1.65;;;25.80;99.90;27.40;101942.00;;;;6249755;22;20157;-69
2023/06/07 09:47:07;;;;;;;2.97;1.70;;;25.50;99.90;26.30;101971.00;;;;6248633;22;20155;-68
2023/06/07 09:49:40;;;;;;;2.45;1.48;;;24.70;99.90;27.00;101963.00;;;;6250668;22;20164;-68
2023/06/07 09:52:13;;;;;;;3.08;2.05;;;24.70;99.90;24.80;102008.00;;;;6274318;22;20172;-68
2023/06/07 09:54:44;;;;;;;0.40;0.40;;;23.60;99.90;26.20;101990.00;;;;6274232;22;20149;-66
2023/06/07 09:57:30;;;;;;;0.15;0.15;;;23.30;99.90;27.90;101953.00;;;;6275021;22;20141;-66
2023/06/07 10:02:46;;;;;;;1.98;1.50;;;24.10;99.90;24.80;102002.00;;;;6274776;22;20151;-71
2023/06/07 10:05:17;;;;;;;0.20;0.20;;;23.70;99.90;28.90;101927.00;;;;6273976;22;20596;-70
2023/06/07 10:07:52;;;;;;;0.57;0.57;;;24.70;99.90;29.50;101894.00;;;;6274391;22;20224;-70
2023/06/07 10:10:40;;;;;;;0.45;0.45;;;25.70;99.90;28.60;101922.00;;;;6274557;22;20157;-70
2023/06/07 10:13:26;;;;;;;1.52;1.42;;;25.90;99.90;31.00;101883.00;;;;6274893;22;20169;-71
2023/06/07 10:15:55;;;;;;;0.43;0.43;;;27.30;99.90;30.30;101897.00;;;;6274559;22;20161;-73
2023/06/07 10:18:26;;;;;;;0.93;0.63;;;27.40;99.90;31.70;101873.00;;;;6273521;22;20159;-75
2023/06/07 10:33:57;;;;;;;0.77;0.75;;;25.20;99.90;28.70;101933.00;;;;5069166;28;20597;-69
2023/06/07 10:36:55;;;;;;;0.32;0.32;;;26.00;99.90;29.50;101913.00;;;;5031052;28;20209;-70
2023/06/07 10:39:48;;;;;;;0.57;0.57;;;25.90;99.90;29.20;101877.00;;;;5031826;28;20245;-70
2023/06/07 10:42:40;;;;;;;1.23;1.13;;;26.80;99.90;27.60;101924.00;;;;5029730;28;20198;-69
2023/06/07 10:45:31;;;;;;;0.90;0.90;;;25.70;99.90;29.10;101871.00;;;;5048984;28;20182;-69
2023/06/07 10:48:37;;;;;;;0.93;0.32;;;26.40;99.90;31.60;101828.00;;;;5028797;28;20190;-67
2023/06/07 10:51:43;;;;;;;3.92;1.85;;;27.50;99.90;28.30;101909.00;;;;5046807;28;20198;-67
2023/06/07 10:54:37;;;;;;;1.25;1.00;;;28.30;99.90;28.60;101902.00;;;;5047461;28;20194;-69
2023/06/07 10:57:14;;;;;;;0.55;0.30;;;25.90;99.90;31.30;101864.00;;;;5048564;28;20189;-67
2023/06/07 10:59:55;;;;;;;1.83;1.73;;;27.10;99.90;27.80;101925.00;;;;5048846;28;20277;-70
2023/06/07 11:02:36;;;;;;;3.72;2.83;;;26.70;99.90;28.00;101931.00;;;;5039322;28;20198;-70
2023/06/07 11:06:09;;;;;;;0.52;0.52;;;26.00;99.90;28.70;101929.00;;;;5048929;28;20178;-70
2023/06/07 11:08:40;;;;;;;2.45;1.83;;;26.70;99.90;27.80;101942.00;;;;5064532;28;20183;-70
2023/06/07 11:11:44;;;;;;;1.80;1.70;;;26.00;99.90;28.60;101938.00;;;;5049181;28;20672;-70
2023/06/07 11:14:35;;;;;;;4.75;2.88;;;26.20;99.90;28.70;101926.00;;;;5034883;28;20239;-69
2023/06/07 11:17:05;;;;;;;2.15;1.13;;;26.50;99.90;30.10;101900.00;;;;5048278;28;20193;-69
2023/06/07 11:20:00;;;;;;;2.67;2.47;;;27.10;99.90;31.00;101865.00;;;;5048242;28;20179;-69
2023/06/07 11:22:55;;;;;;;0.20;0.20;;;28.10;99.90;32.70;101836.00;;;;5075775;28;20265;-68
2023/06/07 11:25:25;;;;;;;1.70;1.55;;;28.90;99.90;30.00;101885.00;;;;5032096;28;20194;-67
2023/06/07 11:28:33;;;;;;;1.50;1.40;;;28.30;99.90;33.50;101841.00;;;;5049276;28;20258;-67
2023/06/07 11:31:53;;;;;;;0.80;0.80;;;29.60;99.90;29.30;101908.00;;;;5047694;28;20178;-67
2023/06/07 11:34:57;;;;;;;0.82;0.82;;;28.60;99.90;32.40;101899.00;;;;5046112;28;20201;-67
2023/06/07 11:37:43;;;;;;;1.10;1.00;;;28.90;99.90;31.90;101841.00;;;;5044586;28;20209;-67
2023/06/07 11:40:45;;;;;;;0.20;0.20;;;29.30;99.90;32.80;101847.00;;;;5044778;28;20186;-67
2023/06/07 11:43:23;;;;;;;1.23;1.15;;;29.50;99.90;30.50;101837.00;;;;5073748;28;20190;-67
2023/06/07 11:46:13;;;;;;;1.10;0.90;;;29.40;99.90;33.00;101828.00;;;;5034411;28;20186;-67
2023/06/07 11:49:18;;;;;;;0.98;0.93;;;29.70;99.90;29.60;101848.00;;;;5034435;28;20183;-65
2023/06/07 11:52:09;;;;;;;2.05;1.38;;;28.00;99.90;28.40;101854.00;;;;5022845;28;20321;-67
2023/06/07 11:54:52;;;;;;;0.60;0.57;;;26.90;99.90;30.50;101841.00;;;;5019015;28;20183;-67
2023/06/07 11:57:48;;;;;;;0.90;0.50;;;27.20;99.90;29.50;101857.00;;;;5029174;28;20186;-67
2023/06/07 12:00:21;;;;;;;0.20;0.20;;;26.50;99.90;30.80;101851.00;;;;5029438;28;20182;-67
2023/06/07 12:02:48;;;;;;;1.27;1.17;;;27.10;99.90;29.00;101859.00;;;;5032653;28;20558;-67
2023/06/07 12:05:17;;;;;;;0.75;0.75;;;26.40;99.90;31.00;101855.00;;;;5034124;28;20188;-67
2023/06/07 12:08:12;;;;;;;0.20;0.20;;;26.80;99.90;30.30;101851.00;;;;5034716;28;20226;-73
2023/06/07 12:11:01;;;;;;;0.10;0.10;;;27.30;99.90;30.10;101851.00;;;;5032187;28;20591;-67
2023/06/07 12:13:39;;;;;;;2.13;1.90;;;27.10;99.90;28.30;101861.00;;;;5033217;28;20182;-68
2023/06/07 12:16:07;;;;;;;2.70;1.33;;;26.30;99.90;29.20;101861.00;;;;5034205;28;20626;-70
2023/06/07 12:18:38;;;;;;;3.50;2.13;;;26.00;99.90;29.10;101864.00;;;;5034332;28;20190;-68
2023/06/07 12:21:38;;;;;;;0.80;0.80;;;26.20;99.90;29.60;101860.00;;;;5035079;28;20178;-68
2023/06/07 12:24:27;;;;;;;3.00;1.60;;;26.40;99.90;28.90;101838.00;;;;5022391;28;20257;-68
2023/06/07 12:27:23;;;;;;;0.93;0.93;;;26.10;99.90;29.80;101848.00;;;;5011195;28;20196;-69
2023/06/07 12:30:37;;;;;;;1.42;1.33;;;26.40;99.90;29.20;101847.00;;;;5030671;28;20645;-69
2023/06/07 12:33:20;;;;;;;3.47;2.88;;;26.40;99.90;30.20;101847.00;;;;5034243;28;20552;-70
2023/06/07 12:36:33;;;;;;;4.60;3.53;;;26.60;99.90;27.70;101860.00;;;;5033478;28;20268;-68
2023/06/07 12:39:53;;;;;;;1.73;1.60;;;25.70;99.90;28.50;101859.00;;;;5015820;28;20218;-68
2023/06/07 12:42:48;;;;;;;1.00;1.00;;;25.80;99.90;29.00;101848.00;;;;5026390;28;20555;-68
2023/06/07 12:46:02;;;;;;;1.75;1.65;;;25.60;99.90;28.10;101859.00;;;;5041134;28;20195;-68
2023/06/07 12:48:52;;;;;;;1.88;1.70;;;25.80;99.90;28.70;101858.00;;;;5038657;28;20690;-69
2023/06/07 12:51:26;;;;;;;1.08;1.05;;;25.70;99.90;28.60;101856.00;;;;5027107;28;20313;-68
2023/06/07 12:53:56;;;;;;;0.68;0.68;;;25.60;99.90;29.30;101845.00;;;;5031806;28;20186;-68
2023/06/07 12:56:25;;;;;;;0.90;0.52;;;25.70;99.90;29.80;101841.00;;;;5015051;28;20545;-68
2023/06/07 12:58:52;;;;;;;0.38;0.35;;;26.00;99.90;29.40;101839.00;;;;5018850;28;20180;-68
2023/06/07 13:01:28;;;;;;;0.35;0.35;;;26.10;99.90;29.30;101836.00;;;;5049006;28;20191;-68
2023/06/07 13:04:00;;;;;;;1.02;0.88;;;25.90;99.90;28.90;101839.00;;;;5032876;28;20178;-68
2023/06/07 13:06:28;;;;;;;0.82;0.82;;;25.90;99.90;29.80;101832.00;;;;5019936;28;20198;-68
2023/06/07 13:09:25;;;;;;;1.13;1.08;;;26.10;99.90;29.30;101829.00;;;;5032417;28;20190;-68
2023/06/07 13:11:53;;;;;;;0.35;0.35;;;26.10;99.90;30.10;101824.00;;;;5030008;28;20207;-68
2023/06/07 13:14:28;;;;;;;1.55;1.45;;;26.30;99.90;30.00;101810.00;;;;5032971;28;20190;-68
2023/06/07 13:17:20;;;;;;;1.38;1.27;;;26.50;99.90;29.70;101814.00;;;;5035518;28;20538;-68
2023/06/07 13:19:57;;;;;;;10.80;2.05;;;26.40;99.90;28.70;101811.00;;;;5028195;28;20649;-68
2023/06/07 13:22:46;;;;;;;0.90;0.85;;;25.80;99.90;27.90;101823.00;;;;5031335;28;20193;-68
2023/06/07 13:25:55;;;;;;;0.45;0.45;;;25.20;99.90;28.50;101828.00;;;;5032837;28;20252;-68
2023/06/07 13:28:59;;;;;;;0.50;0.47;;;25.10;99.90;29.20;101827.00;;;;5022036;28;20212;-68
2023/06/07 13:31:57;;;;;;;0.32;0.32;;;25.40;99.90;27.90;101815.00;;;;5014368;28;20313;-69
2023/06/07 13:34:56;;;;;;;0.60;0.60;;;25.20;99.90;28.10;101839.00;;;;4953213;29;20201;-69
2023/06/07 13:37:48;;;;;;;0.55;0.55;;;25.10;99.90;28.30;101837.00;;;;4944756;29;20224;-69
2023/06/07 13:40:17;;;;;;;0.22;0.22;;;25.10;99.90;29.00;101833.00;;;;5010508;28;20225;-69
2023/06/07 13:42:51;;;;;;;1.88;1.20;;;25.30;99.90;29.00;101835.00;;;;5031441;28;20206;-69
2023/06/07 13:46:10;;;;;;;0.47;0.47;;;25.60;99.90;28.90;101826.00;;;;5007881;28;20277;-70
2023/06/07 13:48:49;;;;;;;2.22;1.67;;;25.40;99.90;28.00;101837.00;;;;5013288;28;20214;-69
2023/06/07 13:51:19;;;;;;;0.40;0.40;;;25.40;99.90;28.10;101834.00;;;;5032053;28;20720;-69
2023/06/07 13:53:55;;;;;;;0.22;0.22;;;25.20;99.90;29.10;101806.00;;;;5032507;28;20237;-70
2023/06/07 13:56:22;;;;;;;0.10;0.10;;;25.40;99.90;29.70;101798.00;;;;5033088;28;20405;-68
2023/06/07 13:58:51;;;;;;;1.75;1.55;;;25.70;99.90;29.30;101819.00;;;;5032563;28;20174;-68
2023/06/07 14:01:29;;;;;;;0.65;0.65;;;25.80;99.90;29.60;101804.00;;;;5032072;28;20198;-68
2023/06/07 14:04:04;;;;;;;1.70;1.60;;;26.00;99.90;29.60;101811.00;;;;5031741;28;20261;-69
2023/06/07 14:06:30;;;;;;;0.57;0.57;;;25.90;99.90;29.50;101807.00;;;;5016134;28;20256;-68
2023/06/07 14:08:56;;;;;;;1.38;1.30;;;25.90;99.90;29.50;101825.00;;;;5031828;28;20581;-68
2023/06/07 14:11:34;;;;;;;5.93;3.65;;;26.00;99.90;28.80;101819.00;;;;5031729;28;20207;-69
2023/06/07 14:14:06;;;;;;;0.40;0.40;;;25.80;99.90;29.20;101830.00;;;;5015864;28;20214;-68
2023/06/07 14:16:43;;;;;;;2.00;1.70;;;25.80;99.90;29.40;101827.00;;;;5033268;28;20190;-68
2023/06/07 14:19:27;;;;;;;5.22;3.50;;;25.90;99.90;28.60;101841.00;;;;5031540;28;20182;-68
2023/06/07 14:21:58;;;;;;;1.35;1.25;;;25.60;99.90;29.80;101834.00;;;;5031703;28;20270;-69
2023/06/07 14:24:30;;;;;;;1.40;1.30;;;25.70;99.90;29.40;101834.00;;;;5031353;28;20229;-68
2023/06/07 14:27:18;;;;;;;1.52;1.30;;;25.70;99.90;29.10;101839.00;;;;5012471;28;20180;-68
2023/06/07 14:30:17;;;;;;;2.25;2.05;;;25.60;99.90;27.40;101854.00;;;;5031975;28;20186;-68
2023/06/07 14:33:00;;;;;;;1.48;1.38;;;25.30;99.90;28.50;101849.00;;;;5010572;28;20716;-65
2023/06/07 14:35:41;;;;;;;0.38;0.38;;;25.10;99.90;28.60;101850.00;;;;4986835;28;20629;-68
2023/06/07 14:38:07;;;;;;;3.55;1.55;;;25.10;99.90;28.40;101849.00;;;;4994662;28;20175;-69
2023/06/07 14:41:36;;;;;;;1.45;1.10;;;25.10;99.90;27.30;101853.00;;;;4994250;28;20222;-69
2023/06/07 14:44:06;;;;;;;3.85;2.90;;;24.80;99.90;27.70;101845.00;;;;5029306;28;20280;-66
2023/06/07 14:46:55;;;;;;;0.80;0.80;;;24.60;99.90;28.20;101872.00;;;;5032996;28;20183;-67
2023/06/07 14:49:27;;;;;;;2.15;1.83;;;24.50;99.90;27.70;101879.00;;;;5029326;28;20289;-67
2023/06/07 14:52:04;;;;;;;0.93;0.90;;;24.60;99.90;27.70;101878.00;;;;5042015;28;20194;-67
2023/06/07 14:55:12;;;;;;;0.95;0.93;;;24.50;99.90;28.20;101872.00;;;;5021802;28;20183;-67
2023/06/07 14:58:57;;;;;;;2.90;2.45;;;24.60;99.90;27.50;101869.00;;;;5014331;28;20251;-67
2023/06/07 15:01:31;;;;;;;1.75;1.48;;;24.30;99.90;27.80;101847.00;;;;5032531;28;20667;-67
2023/06/07 15:04:39;;;;;;;2.10;1.95;;;24.50;99.90;27.50;101873.00;;;;5047385;28;20187;-67
2023/06/07 15:07:11;;;;;;;1.30;1.20;;;24.20;99.90;27.70;101869.00;;;;5030026;28;20730;-66
2023/06/07 15:10:15;;;;;;;2.17;0.95;;;24.40;99.90;28.00;101862.00;;;;5016835;28;20186;-67
2023/06/07 15:13:03;;;;;;;5.55;2.15;;;24.50;99.90;27.60;101843.00;;;;5031263;28;20198;-68
2023/06/07 15:16:01;;;;;;;0.73;0.30;;;24.40;99.90;27.70;101853.00;;;;5056225;28;20226;-67
2023/06/07 15:19:02;;;;;;;5.15;2.90;;;24.40;99.90;26.70;101877.00;;;;5041260;28;20190;-68
2023/06/07 15:21:56;;;;;;;0.90;0.88;;;24.10;99.90;27.70;101845.00;;;;5042826;28;20194;-68
2023/06/07 15:24:45;;;;;;;0.75;0.75;;;24.40;99.90;27.40;101828.00;;;;5022797;28;20678;-68
2023/06/07 15:27:31;;;;;;;1.27;1.23;;;24.40;99.90;27.40;101845.00;;;;5043836;28;20194;-68
2023/06/07 15:30:06;;;;;;;1.15;1.00;;;24.40;99.90;27.70;101839.00;;;;5043273;28;20235;-68
2023/06/07 15:33:03;;;;;;;0.10;0.10;;;24.40;99.90;27.80;101839.00;;;;5044386;28;20672;-68
2023/06/07 15:35:31;;;;;;;0.52;0.52;;;24.30;99.90;27.60;101833.00;;;;5044785;28;20251;-68
2023/06/07 15:38:13;;;;;;;0.28;0.28;;;24.30;99.90;27.40;101824.00;;;;5043163;28;20182;-68
2023/06/07 15:40:44;;;;;;;0.25;0.25;;;24.40;99.90;28.20;101797.00;;;;5044454;28;20893;-67
2023/06/07 15:43:18;;;;;;;0.17;0.17;;;24.50;99.90;28.10;101806.00;;;;5044927;28;20186;-67
2023/06/07 15:46:11;;;;;;;0.70;0.70;;;24.60;99.90;26.80;101825.00;;;;5042460;28;20187;-68
2023/06/07 15:48:50;;;;;;;2.22;2.13;;;24.50;99.90;26.60;101800.00;;;;5042058;28;20182;-67
2023/06/07 15:51:36;;;;;;;1.85;1.05;;;24.20;99.90;26.70;101821.00;;;;5043884;28;20659;-67
2023/06/07 15:54:26;;;;;;;1.08;1.08;;;24.00;99.90;27.40;101812.00;;;;5043928;28;20262;-68
2023/06/07 15:57:17;;;;;;;1.10;0.93;;;24.40;99.90;27.60;101790.00;;;;5035292;28;20216;-68
2023/06/07 16:00:12;;;;;;;0.10;0.10;;;24.70;99.90;28.20;101792.00;;;;5041777;28;20199;-67
2023/06/07 16:02:50;;;;;;;2.22;2.05;;;24.70;99.90;28.30;101751.00;;;;5043522;28;20268;-68
2023/06/07 16:05:30;;;;;;;1.58;1.10;;;25.20;99.90;27.20;101748.00;;;;5042196;28;20184;-68
2023/06/07 16:08:17;;;;;;;0.60;0.57;;;24.90;99.90;27.60;101771.00;;;;5026170;28;20641;-67
2023/06/07 16:11:16;;;;;;;1.27;1.17;;;24.90;99.90;27.00;101782.00;;;;5042204;28;20197;-68
2023/06/07 16:14:25;;;;;;;7.65;2.83;;;24.60;99.90;27.50;101780.00;;;;5035438;28;20665;-67
2023/06/07 16:17:10;;;;;;;1.27;1.17;;;24.60;99.90;26.70;101765.00;;;;5043170;28;20546;-68
2023/06/07 16:19:39;;;;;;;0.68;0.68;;;24.40;99.90;27.70;101778.00;;;;5042470;28;20252;-68
2023/06/07 16:22:43;;;;;;;0.15;0.15;;;24.30;99.90;27.30;101773.00;;;;5058286;28;20190;-68
2023/06/07 16:25:34;;;;;;;0.10;0.10;;;24.30;99.90;28.00;101774.00;;;;5039318;28;20202;-67
2023/06/07 16:28:43;;;;;;;0.10;0.10;;;24.40;99.90;28.60;101755.00;;;;5042719;28;20186;-68
2023/06/07 16:31:39;;;;;;;0.32;0.32;;;24.70;99.90;29.30;101721.00;;;;5026447;28;20273;-68
2023/06/07 16:34:35;;;;;;;0.63;0.60;;;25.20;99.90;29.30;101723.00;;;;5026605;28;20277;-68
2023/06/07 16:37:53;;;;;;;0.10;0.10;;;25.40;99.90;28.70;101721.00;;;;5040482;28;20182;-68
2023/06/07 16:40:45;;;;;;;2.10;1.02;;;25.30;99.90;28.70;101721.00;;;;5041040;28;20551;-68
2023/06/07 16:43:47;;;;;;;0.10;0.10;;;25.20;99.90;27.90;101729.00;;;;5023275;28;20582;-68
2023/06/07 16:46:30;;;;;;;1.52;1.35;;;25.10;99.90;27.20;101726.00;;;;5040625;28;20194;-68
2023/06/07 16:49:23;;;;;;;0.20;0.20;;;24.70;99.90;27.40;101734.00;;;;5041255;28;20205;-68
2023/06/07 16:51:54;;;;;;;1.35;0.75;;;24.20;99.90;27.20;101733.00;;;;5040437;28;20257;-68
2023/06/07 16:54:58;;;;;;;1.25;1.05;;;24.20;99.90;27.10;101745.00;;;;5042936;28;20266;-68
2023/06/07 16:58:08;;;;;;;0.20;0.20;;;24.20;99.90;27.80;101739.00;;;;5041999;28;20190;-68
2023/06/07 17:00:58;;;;;;;0.10;0.10;;;24.30;99.90;27.90;101730.00;;;;5040819;28;20202;-68
2023/06/07 17:03:37;;;;;;;0.63;0.63;;;24.50;99.90;28.80;101727.00;;;;5041660;28;20201;-68
2023/06/07 17:06:25;;;;;;;0.20;0.20;;;24.80;99.90;27.20;101735.00;;;;5037393;28;20183;-67
2023/06/07 17:09:11;;;;;;;2.05;0.65;;;24.50;99.90;27.80;101730.00;;;;5030618;28;20202;-67
2023/06/07 17:12:14;;;;;;;0.63;0.63;;;24.50;99.90;27.10;101730.00;;;;5033838;28;20198;-68
2023/06/07 17:15:19;;;;;;;3.58;2.28;;;24.40;99.90;27.50;101737.00;;;;5020997;28;20812;-68
2023/06/07 17:19:00;;;;;;;0.40;0.40;;;24.40;99.90;27.60;101725.00;;;;5028062;28;20182;-68
2023/06/07 17:22:01;;;;;;;0.10;0.10;;;24.60;99.90;28.70;101736.00;;;;5028726;28;20626;-67
2023/06/07 17:25:04;;;;;;;0.10;0.10;;;24.80;99.90;28.40;101729.00;;;;5044311;28;20209;-68
2023/06/07 17:28:15;;;;;;;0.10;0.10;;;24.90;99.90;27.50;101735.00;;;;5032821;28;20593;-68
2023/06/07 17:31:16;;;;;;;0.10;0.10;;;24.60;99.90;28.40;101735.00;;;;5028524;28;21013;-67
2023/06/07 17:34:23;;;;;;;0.30;0.30;;;25.00;99.90;27.80;101745.00;;;;5015733;28;20277;-68
2023/06/07 17:37:24;;;;;;;0.55;0.55;;;24.70;99.90;28.30;101714.00;;;;5030249;28;20194;-68
2023/06/07 17:39:59;;;;;;;0.30;0.30;;;24.70;99.90;28.40;101744.00;;;;5006458;28;20656;-67
2023/06/07 17:43:00;;;;;;;0.73;0.73;;;24.90;99.90;27.00;101760.00;;;;5027365;28;20197;-67
2023/06/07 17:46:04;;;;;;;0.32;0.32;;;24.40;99.90;26.90;101752.00;;;;5058575;28;20269;-67
2023/06/07 17:48:32;;;;;;;0.93;0.93;;;24.30;99.90;26.90;101731.00;;;;5032197;28;20245;-67
2023/06/07 17:51:10;;;;;;;0.55;0.40;;;24.30;99.90;27.20;101723.00;;;;5041673;28;20197;-67
2023/06/07 17:53:53;;;;;;;0.40;0.40;;;24.20;99.90;27.40;101747.00;;;;5040888;28;20201;-67
2023/06/07 17:56:45;;;;;;;4.43;1.73;;;24.30;99.90;27.00;101740.00;;;;5040672;28;20197;-68
2023/06/07 17:59:27;;;;;;;0.30;0.30;;;24.30;99.90;26.90;101737.00;;;;5040957;28;20317;-68
2023/06/07 18:02:37;;;;;;;1.00;1.00;;;24.20;99.90;26.80;101743.00;;;;5041651;28;20221;-67
2023/06/07 18:05:51;;;;;;;0.95;0.85;;;24.00;99.90;26.80;101737.00;;;;5040055;28;20659;-68
2023/06/07 18:08:40;;;;;;;0.43;0.43;;;24.00;99.90;26.50;101759.00;;;;5040109;28;20293;-68
2023/06/07 18:11:15;;;;;;;0.80;0.45;;;23.90;99.90;26.70;101748.00;;;;5039683;28;20594;-68
2023/06/07 18:14:26;;;;;;;1.65;1.17;;;23.90;99.90;26.80;101731.00;;;;5040535;28;20309;-68
2023/06/07 18:17:45;;;;;;;0.40;0.40;;;23.80;99.90;26.50;101751.00;;;;5040200;28;20190;-68
2023/06/07 18:20:46;;;;;;;0.10;0.10;;;23.90;99.90;26.60;101768.00;;;;5041730;28;20256;-67
2023/06/07 18:23:20;;;;;;;0.45;0.45;;;23.80;99.90;26.80;101767.00;;;;5040633;28;20564;-68
2023/06/07 18:26:43;;;;;;;3.67;3.00;;;23.80;99.90;26.30;101781.00;;;;5024452;28;20178;-68
2023/06/07 18:30:07;;;;;;;1.08;0.93;;;23.60;99.90;26.30;101781.00;;;;5037085;28;20174;-67
2023/06/07 18:32:58;;;;;;;2.28;1.95;;;23.70;99.90;26.20;101785.00;;;;5040446;28;20248;-68
2023/06/07 18:35:50;;;;;;;1.55;1.20;;;23.70;99.90;26.20;101786.00;;;;5039634;28;20229;-68
2023/06/07 18:38:47;;;;;;;1.80;0.88;;;23.60;99.90;26.30;101788.00;;;;5039980;28;20190;-68
2023/06/07 18:41:58;;;;;;;1.33;1.23;;;23.60;99.90;26.10;101791.00;;;;5032210;28;20198;-67
2023/06/07 18:45:16;;;;;;;1.42;1.27;;;23.50;99.90;26.20;101806.00;;;;5031162;28;20328;-67
2023/06/07 18:48:29;;;;;;;0.65;0.65;;;23.40;99.90;26.20;101826.00;;;;5040254;28;20182;-67
2023/06/07 18:51:31;;;;;;;1.38;1.27;;;23.40;99.90;26.10;101825.00;;;;5024402;28;20198;-68
2023/06/07 18:54:30;;;;;;;1.35;1.27;;;23.40;99.90;25.90;101830.00;;;;5030937;28;20194;-67
2023/06/07 18:57:51;;;;;;;0.43;0.43;;;23.30;99.90;26.40;101829.00;;;;5026298;28;20178;-67
2023/06/07 19:01:13;;;;;;;3.55;2.50;;;23.30;99.90;25.00;101807.00;;;;5016018;28;20182;-67
2023/06/07 19:04:21;;;;;;;3.03;1.55;;;23.00;99.90;25.20;101855.00;;;;5032217;28;20194;-67
2023/06/07 19:07:40;;;;;;;0.75;0.75;;;22.90;99.90;25.50;101810.00;;;;5033543;28;20187;-67
2023/06/07 19:10:53;;;;;;;0.68;0.68;;;22.90;99.90;25.70;101842.00;;;;5031247;28;20256;-67
2023/06/07 19:13:50;;;;;;;2.92;2.40;;;22.90;99.90;25.30;101841.00;;;;5031960;28;20207;-67
2023/06/07 19:17:10;;;;;;;0.90;0.85;;;22.60;99.90;25.00;101848.00;;;;5029280;28;20524;-67
2023/06/07 19:20:18;;;;;;;1.35;1.25;;;22.60;99.90;25.10;101842.00;;;;5044253;28;20233;-67
2023/06/07 19:23:41;;;;;;;1.25;1.15;;;22.40;99.90;25.20;101841.00;;;;5035248;28;20175;-67
2023/06/07 19:26:18;;;;;;;0.50;0.50;;;22.40;99.90;24.80;101837.00;;;;5047536;28;20189;-67